sensor_id;sensor_type;location;lat;lon;timestamp;pressure;altitude;pressure_sealevel;temperature;humidity
37792;BME280;29527;55.766;37.570;2023-07-20T00:02:14;98430.34;;;13.64;72.31
37792;BME280;29527;55.766;37.570;2023-07-20T00:04:40;98413.06;;;13.58;72.20
37792;BME280;29527;55.766;37.570;2023-07-20T00:07:05;98419.75;;;13.62;72.41
37792;BME280;29527;55.766;37.570;2023-07-20T00:09:31;98423.94;;;13.65;72.12
37792;BME280;29527;55.766;37.570;2023-07-20T00:11:56;98431.16;;;13.64;72.13
37792;BME280;29527;55.766;37.570;2023-07-20T00:14:22;98435.22;;;13.60;72.13
37792;BME280;29527;55.766;37.570;2023-07-20T00:16:50;98435.22;;;13.60;72.31
37792;BME280;29527;55.766;37.570;2023-07-20T00:19:22;98435.75;;;13.56;72.26
37792;BME280;29527;55.766;37.570;2023-07-20T00:21:48;98436.13;;;13.53;72.25
37792;BME280;29527;55.766;37.570;2023-07-20T00:24:14;98426.38;;;13.52;72.30
37792;BME280;29527;55.766;37.570;2023-07-20T00:26:39;98432.94;;;13.49;72.70
37792;BME280;29527;55.766;37.570;2023-07-20T00:29:05;98435.81;;;13.47;72.69
37792;BME280;29527;55.766;37.570;2023-07-20T00:31:31;98442.22;;;13.46;72.78
37792;BME280;29527;55.766;37.570;2023-07-20T00:33:56;98435.47;;;13.42;72.57
37792;BME280;29527;55.766;37.570;2023-07-20T00:36:22;98441.22;;;13.39;72.94
37792;BME280;29527;55.766;37.570;2023-07-20T00:38:47;98437.03;;;13.37;73.05
37792;BME280;29527;55.766;37.570;2023-07-20T00:41:13;98437.38;;;13.33;73.02
37792;BME280;29527;55.766;37.570;2023-07-20T00:43:38;98436.00;;;13.38;73.05
37792;BME280;29527;55.766;37.570;2023-07-20T00:46:04;98424.28;;;13.30;72.92
37792;BME280;29527;55.766;37.570;2023-07-20T00:48:31;98409.25;;;13.13;73.00
37792;BME280;29527;55.766;37.570;2023-07-20T00:50:58;98446.09;;;13.35;72.94
37792;BME280;29527;55.766;37.570;2023-07-20T00:53:24;98451.13;;;13.39;73.03
37792;BME280;29527;55.766;37.570;2023-07-20T00:55:49;98444.44;;;13.34;73.19
37792;BME280;29527;55.766;37.570;2023-07-20T00:58:15;98447.81;;;13.28;73.29
37792;BME280;29527;55.766;37.570;2023-07-20T01:00:41;98444.28;;;13.28;73.08
37792;BME280;29527;55.766;37.570;2023-07-20T01:03:06;98440.09;;;13.25;73.33
37792;BME280;29527;55.766;37.570;2023-07-20T01:06:01;98436.41;;;13.26;73.43
37792;BME280;29527;55.766;37.570;2023-07-20T01:08:40;98443.28;;;13.29;73.38
37792;BME280;29527;55.766;37.570;2023-07-20T01:11:16;98450.16;;;13.31;73.47
37792;BME280;29527;55.766;37.570;2023-07-20T01:13:47;98450.81;;;13.33;72.78
37792;BME280;29527;55.766;37.570;2023-07-20T01:16:12;98452.53;;;13.26;73.08
37792;BME280;29527;55.766;37.570;2023-07-20T01:18:38;98416.88;;;13.01;73.38
37792;BME280;29527;55.766;37.570;2023-07-20T01:21:09;98453.88;;;13.22;73.63
37792;BME280;29527;55.766;37.570;2023-07-20T01:29:17;98453.84;;;13.30;73.37
37792;BME280;29527;55.766;37.570;2023-07-20T01:31:48;98457.81;;;13.51;72.82
37792;BME280;29527;55.766;37.570;2023-07-20T01:34:17;98464.25;;;13.33;72.83
37792;BME280;29527;55.766;37.570;2023-07-20T01:36:43;98456.22;;;13.25;73.22
37792;BME280;29527;55.766;37.570;2023-07-20T01:39:10;98459.91;;;13.24;73.27
37792;BME280;29527;55.766;37.570;2023-07-20T01:41:36;98459.09;;;13.24;73.31
37792;BME280;29527;55.766;37.570;2023-07-20T01:44:03;98465.28;;;13.24;73.32
37792;BME280;29527;55.766;37.570;2023-07-20T01:46:29;98459.25;;;13.22;73.55
37792;BME280;29527;55.766;37.570;2023-07-20T01:48:54;98458.25;;;13.23;73.57
37792;BME280;29527;55.766;37.570;2023-07-20T01:51:20;98453.19;;;13.28;73.30
37792;BME280;29527;55.766;37.570;2023-07-20T01:53:45;98457.72;;;13.28;73.31
37792;BME280;29527;55.766;37.570;2023-07-20T01:56:11;98454.88;;;13.29;73.45
37792;BME280;29527;55.766;37.570;2023-07-20T01:58:38;98456.53;;;13.30;73.41
37792;BME280;29527;55.766;37.570;2023-07-20T02:01:04;98445.13;;;13.28;73.21
37792;BME280;29527;55.766;37.570;2023-07-20T02:03:30;98445.59;;;13.32;73.23
37792;BME280;29527;55.766;37.570;2023-07-20T02:05:55;98446.75;;;13.38;73.12
37792;BME280;29527;55.766;37.570;2023-07-20T02:08:22;98455.66;;;13.38;73.14
37792;BME280;29527;55.766;37.570;2023-07-20T02:10:49;98455.16;;;13.43;73.21
37792;BME280;29527;55.766;37.570;2023-07-20T02:13:14;98449.41;;;13.46;73.03
37792;BME280;29527;55.766;37.570;2023-07-20T02:15:41;98447.59;;;13.46;72.77
37792;BME280;29527;55.766;37.570;2023-07-20T02:18:08;98407.16;;;13.31;72.70
37792;BME280;29527;55.766;37.570;2023-07-20T02:20:35;98457.03;;;13.66;72.12
37792;BME280;29527;55.766;37.570;2023-07-20T02:23:00;98460.66;;;13.81;71.81
37792;BME280;29527;55.766;37.570;2023-07-20T02:25:26;98451.50;;;13.90;71.38
37792;BME280;29527;55.766;37.570;2023-07-20T02:27:52;98456.22;;;14.12;70.86
37792;BME280;29527;55.766;37.570;2023-07-20T02:30:17;98412.00;;;13.91;70.23
37792;BME280;29527;55.766;37.570;2023-07-20T02:32:43;98458.34;;;14.40;69.72
37792;BME280;29527;55.766;37.570;2023-07-20T02:35:15;98463.88;;;14.61;69.04
37792;BME280;29527;55.766;37.570;2023-07-20T02:37:40;98420.56;;;14.63;68.14
37792;BME280;29527;55.766;37.570;2023-07-20T02:40:07;98453.69;;;15.02;67.63
37792;BME280;29527;55.766;37.570;2023-07-20T02:42:33;98457.38;;;15.31;66.44
37792;BME280;29527;55.766;37.570;2023-07-20T02:44:59;98465.06;;;15.49;65.72
37792;BME280;29527;55.766;37.570;2023-07-20T02:47:25;98455.56;;;15.53;65.18
37792;BME280;29527;55.766;37.570;2023-07-20T02:49:50;98456.97;;;15.49;65.27
37792;BME280;29527;55.766;37.570;2023-07-20T02:52:16;98472.78;;;15.52;65.38
37792;BME280;29527;55.766;37.570;2023-07-20T02:54:41;98475.59;;;15.44;65.60
37792;BME280;29527;55.766;37.570;2023-07-20T02:57:07;98473.00;;;15.35;65.40
37792;BME280;29527;55.766;37.570;2023-07-20T02:59:32;98476.72;;;15.34;65.62
37792;BME280;29527;55.766;37.570;2023-07-20T03:01:58;98474.66;;;15.36;65.60
37792;BME280;29527;55.766;37.570;2023-07-20T03:04:26;98487.59;;;15.41;65.58
37792;BME280;29527;55.766;37.570;2023-07-20T03:06:52;98478.00;;;15.39;65.72
37792;BME280;29527;55.766;37.570;2023-07-20T03:09:18;98446.22;;;15.19;65.25
37792;BME280;29527;55.766;37.570;2023-07-20T03:11:44;98482.00;;;15.43;65.24
37792;BME280;29527;55.766;37.570;2023-07-20T03:14:10;98479.59;;;15.48;65.03
37792;BME280;29527;55.766;37.570;2023-07-20T03:16:36;98493.72;;;15.50;65.17
37792;BME280;29527;55.766;37.570;2023-07-20T03:19:01;98482.34;;;15.55;64.74
37792;BME280;29527;55.766;37.570;2023-07-20T03:21:27;98489.31;;;15.64;64.70
37792;BME280;29527;55.766;37.570;2023-07-20T03:23:53;98477.63;;;15.78;64.48
37792;BME280;29527;55.766;37.570;2023-07-20T03:26:19;98489.31;;;16.01;63.90
37792;BME280;29527;55.766;37.570;2023-07-20T03:28:44;98486.41;;;16.46;62.62
37792;BME280;29527;55.766;37.570;2023-07-20T03:31:10;98483.38;;;17.13;60.59
37792;BME280;29527;55.766;37.570;2023-07-20T03:33:35;98484.50;;;17.94;58.24
37792;BME280;29527;55.766;37.570;2023-07-20T03:36:01;98477.06;;;18.70;55.85
37792;BME280;29527;55.766;37.570;2023-07-20T03:38:27;98480.84;;;19.55;53.79
37792;BME280;29527;55.766;37.570;2023-07-20T03:40:57;98487.81;;;20.47;51.21
37792;BME280;29527;55.766;37.570;2023-07-20T03:43:24;98466.16;;;21.10;49.25
37792;BME280;29527;55.766;37.570;2023-07-20T03:45:51;98474.03;;;21.86;47.18
37792;BME280;29527;55.766;37.570;2023-07-20T03:48:22;98480.16;;;22.67;45.59
37792;BME280;29527;55.766;37.570;2023-07-20T03:50:49;98482.03;;;23.37;43.64
37792;BME280;29527;55.766;37.570;2023-07-20T03:53:16;98485.31;;;24.21;41.71
37792;BME280;29527;55.766;37.570;2023-07-20T03:55:45;98483.19;;;24.92;40.17
37792;BME280;29527;55.766;37.570;2023-07-20T03:58:11;98477.53;;;25.21;39.21
37792;BME280;29527;55.766;37.570;2023-07-20T04:00:37;98471.94;;;25.33;38.49
37792;BME280;29527;55.766;37.570;2023-07-20T04:03:02;98487.28;;;25.12;39.21
37792;BME280;29527;55.766;37.570;2023-07-20T04:05:28;98496.63;;;24.76;39.70
37792;BME280;29527;55.766;37.570;2023-07-20T04:07:53;98473.38;;;24.28;40.16
37792;BME280;29527;55.766;37.570;2023-07-20T04:10:19;98484.91;;;24.01;41.15
37792;BME280;29527;55.766;37.570;2023-07-20T04:12:45;98495.38;;;23.63;42.00
37792;BME280;29527;55.766;37.570;2023-07-20T04:15:15;98492.75;;;23.27;42.60
37792;BME280;29527;55.766;37.570;2023-07-20T04:17:41;98487.03;;;23.17;42.72
37792;BME280;29527;55.766;37.570;2023-07-20T04:20:07;98487.72;;;23.24;42.64
37792;BME280;29527;55.766;37.570;2023-07-20T04:22:34;98497.56;;;23.49;42.08
37792;BME280;29527;55.766;37.570;2023-07-20T04:24:59;98485.78;;;24.01;41.22
37792;BME280;29527;55.766;37.570;2023-07-20T04:27:25;98481.84;;;24.43;40.48
37792;BME280;29527;55.766;37.570;2023-07-20T04:29:51;98491.97;;;24.60;39.83
37792;BME280;29527;55.766;37.570;2023-07-20T04:32:17;98484.84;;;25.32;38.39
37792;BME280;29527;55.766;37.570;2023-07-20T04:34:43;98479.31;;;26.92;36.13
37792;BME280;29527;55.766;37.570;2023-07-20T04:37:08;98490.88;;;27.47;34.18
37792;BME280;29527;55.766;37.570;2023-07-20T04:39:34;98497.88;;;27.17;34.64
37792;BME280;29527;55.766;37.570;2023-07-20T04:41:59;98490.53;;;27.33;34.38
37792;BME280;29527;55.766;37.570;2023-07-20T04:44:25;98487.75;;;27.87;33.38
37792;BME280;29527;55.766;37.570;2023-07-20T04:46:51;98488.88;;;27.32;34.23
37792;BME280;29527;55.766;37.570;2023-07-20T04:49:16;98483.69;;;28.20;32.94
37792;BME280;29527;55.766;37.570;2023-07-20T04:51:42;98482.78;;;29.94;30.14
37792;BME280;29527;55.766;37.570;2023-07-20T04:54:07;98478.28;;;31.38;28.14
37792;BME280;29527;55.766;37.570;2023-07-20T04:56:33;98480.06;;;32.82;26.35
37792;BME280;29527;55.766;37.570;2023-07-20T04:58:58;98488.56;;;33.74;24.57
37792;BME280;29527;55.766;37.570;2023-07-20T05:01:24;98489.25;;;34.76;23.43
37792;BME280;29527;55.766;37.570;2023-07-20T05:03:50;98485.09;;;35.95;22.07
37792;BME280;29527;55.766;37.570;2023-07-20T05:06:15;98469.69;;;36.68;20.66
37792;BME280;29527;55.766;37.570;2023-07-20T05:08:41;98485.00;;;37.10;19.93
37792;BME280;29527;55.766;37.570;2023-07-20T05:11:07;98490.97;;;37.68;19.61
37792;BME280;29527;55.766;37.570;2023-07-20T05:13:33;98487.81;;;38.21;19.27
37792;BME280;29527;55.766;37.570;2023-07-20T05:15:58;98493.63;;;38.71;18.44
37792;BME280;29527;55.766;37.570;2023-07-20T05:18:24;98491.09;;;39.37;17.64
37792;BME280;29527;55.766;37.570;2023-07-20T05:20:50;98493.53;;;40.29;16.86
37792;BME280;29527;55.766;37.570;2023-07-20T05:23:19;98497.94;;;40.87;16.64
37792;BME280;29527;55.766;37.570;2023-07-20T05:25:45;98489.63;;;41.23;15.68
37792;BME280;29527;55.766;37.570;2023-07-20T05:28:11;98489.47;;;41.83;15.17
37792;BME280;29527;55.766;37.570;2023-07-20T05:30:36;98482.97;;;41.99;14.94
37792;BME280;29527;55.766;37.570;2023-07-20T05:33:02;98490.06;;;42.09;14.78
37792;BME280;29527;55.766;37.570;2023-07-20T05:35:27;98496.16;;;42.34;14.43
37792;BME280;29527;55.766;37.570;2023-07-20T05:37:53;98490.50;;;42.93;13.96
37792;BME280;29527;55.766;37.570;2023-07-20T05:40:18;98492.94;;;43.18;14.01
37792;BME280;29527;55.766;37.570;2023-07-20T05:42:45;98492.81;;;42.87;13.81
37792;BME280;29527;55.766;37.570;2023-07-20T05:45:12;98500.41;;;42.64;14.10
37792;BME280;29527;55.766;37.570;2023-07-20T05:47:37;98482.91;;;43.21;13.42
37792;BME280;29527;55.766;37.570;2023-07-20T05:50:03;98486.19;;;43.73;13.22
37792;BME280;29527;55.766;37.570;2023-07-20T05:52:29;98487.78;;;44.35;12.57
37792;BME280;29527;55.766;37.570;2023-07-20T05:54:54;98486.59;;;45.12;12.07
37792;BME280;29527;55.766;37.570;2023-07-20T05:57:20;98484.19;;;45.70;11.48
37792;BME280;29527;55.766;37.570;2023-07-20T05:59:46;98490.53;;;46.23;11.04
37792;BME280;29527;55.766;37.570;2023-07-20T06:02:11;98475.72;;;46.66;10.83
37792;BME280;29527;55.766;37.570;2023-07-20T06:04:39;98490.75;;;46.95;10.93
37792;BME280;29527;55.766;37.570;2023-07-20T06:07:05;98494.44;;;47.28;10.38
37792;BME280;29527;55.766;37.570;2023-07-20T06:09:30;98496.00;;;47.58;9.92
37792;BME280;29527;55.766;37.570;2023-07-20T06:11:56;98491.16;;;47.66;9.67
37792;BME280;29527;55.766;37.570;2023-07-20T06:14:22;98485.06;;;47.68;9.73
37792;BME280;29527;55.766;37.570;2023-07-20T06:16:47;98489.91;;;47.75;9.56
37792;BME280;29527;55.766;37.570;2023-07-20T06:19:13;98490.22;;;48.06;9.79
37792;BME280;29527;55.766;37.570;2023-07-20T06:21:39;98489.19;;;48.56;9.24
37792;BME280;29527;55.766;37.570;2023-07-20T06:24:05;98495.44;;;48.96;9.31
37792;BME280;29527;55.766;37.570;2023-07-20T06:26:31;98470.41;;;49.30;8.60
37792;BME280;29527;55.766;37.570;2023-07-20T06:28:57;98474.06;;;50.07;8.33
37792;BME280;29527;55.766;37.570;2023-07-20T06:31:23;98478.06;;;50.13;7.87
37792;BME280;29527;55.766;37.570;2023-07-20T06:33:48;98464.47;;;50.28;7.80
37792;BME280;29527;55.766;37.570;2023-07-20T06:36:18;98483.38;;;50.97;7.70
37792;BME280;29527;55.766;37.570;2023-07-20T06:38:43;98469.22;;;51.17;7.09
37792;BME280;29527;55.766;37.570;2023-07-20T06:41:09;98472.06;;;51.17;6.86
37792;BME280;29527;55.766;37.570;2023-07-20T06:43:34;98468.91;;;51.35;6.98
37792;BME280;29527;55.766;37.570;2023-07-20T06:46:00;98474.78;;;51.48;6.90
37792;BME280;29527;55.766;37.570;2023-07-20T06:48:26;98479.59;;;51.51;6.59
37792;BME280;29527;55.766;37.570;2023-07-20T06:50:51;98474.09;;;51.64;6.42
37792;BME280;29527;55.766;37.570;2023-07-20T06:53:17;98472.59;;;51.56;6.44
37792;BME280;29527;55.766;37.570;2023-07-20T06:55:43;98468.53;;;51.77;6.52
37792;BME280;29527;55.766;37.570;2023-07-20T06:58:09;98480.25;;;52.03;6.00
37792;BME280;29527;55.766;37.570;2023-07-20T07:00:35;98471.00;;;51.07;6.62
37792;BME280;29527;55.766;37.570;2023-07-20T07:03:00;98475.53;;;49.46;7.24
37792;BME280;29527;55.766;37.570;2023-07-20T07:05:26;98475.00;;;49.16;7.73
37792;BME280;29527;55.766;37.570;2023-07-20T07:07:51;98470.59;;;49.53;7.58
37792;BME280;29527;55.766;37.570;2023-07-20T07:10:17;98464.34;;;50.66;6.63
37792;BME280;29527;55.766;37.570;2023-07-20T07:12:44;98467.63;;;51.60;6.14
37792;BME280;29527;55.766;37.570;2023-07-20T07:15:10;98477.78;;;51.17;5.97
37792;BME280;29527;55.766;37.570;2023-07-20T07:17:36;98473.53;;;51.25;5.89
37792;BME280;29527;55.766;37.570;2023-07-20T07:20:02;98479.38;;;52.06;5.01
37792;BME280;29527;55.766;37.570;2023-07-20T07:22:30;98468.81;;;49.67;6.59
37792;BME280;29527;55.766;37.570;2023-07-20T07:24:56;98480.66;;;47.09;8.08
37792;BME280;29527;55.766;37.570;2023-07-20T07:27:21;98487.44;;;46.53;8.57
37792;BME280;29527;55.766;37.570;2023-07-20T07:29:47;98467.34;;;44.83;9.76
37792;BME280;29527;55.766;37.570;2023-07-20T07:32:14;98471.34;;;44.79;9.82
37792;BME280;29527;55.766;37.570;2023-07-20T07:34:40;98472.28;;;46.06;8.89
37792;BME280;29527;55.766;37.570;2023-07-20T07:37:07;98476.94;;;46.65;8.69
37792;BME280;29527;55.766;37.570;2023-07-20T07:39:32;98481.69;;;45.09;9.33
37792;BME280;29527;55.766;37.570;2023-07-20T07:41:58;98484.63;;;44.40;9.54
37792;BME280;29527;55.766;37.570;2023-07-20T07:44:23;98467.06;;;44.96;9.23
37792;BME280;29527;55.766;37.570;2023-07-20T07:46:50;98478.84;;;46.32;8.57
37792;BME280;29527;55.766;37.570;2023-07-20T07:49:16;98479.78;;;47.74;7.60
37792;BME280;29527;55.766;37.570;2023-07-20T07:51:41;98480.34;;;49.03;6.92
37792;BME280;29527;55.766;37.570;2023-07-20T07:54:07;98480.97;;;50.40;6.25
37792;BME280;29527;55.766;37.570;2023-07-20T07:56:32;98484.84;;;51.33;6.05
37792;BME280;29527;55.766;37.570;2023-07-20T07:58:58;98477.13;;;51.53;5.62
37792;BME280;29527;55.766;37.570;2023-07-20T08:01:24;98479.06;;;51.12;5.82
37792;BME280;29527;55.766;37.570;2023-07-20T08:03:49;98478.00;;;50.48;6.24
37792;BME280;29527;55.766;37.570;2023-07-20T08:06:15;98479.34;;;48.79;7.30
37792;BME280;29527;55.766;37.570;2023-07-20T08:08:40;98483.44;;;45.80;8.89
37792;BME280;29527;55.766;37.570;2023-07-20T08:11:06;98474.34;;;42.47;10.89
37792;BME280;29527;55.766;37.570;2023-07-20T08:13:32;98441.53;;;39.90;12.76
37792;BME280;29527;55.766;37.570;2023-07-20T08:15:57;98460.25;;;38.53;13.63
37792;BME280;29527;55.766;37.570;2023-07-20T08:18:23;98466.34;;;39.39;13.66
37792;BME280;29527;55.766;37.570;2023-07-20T08:20:49;98464.81;;;39.54;13.57
37792;BME280;29527;55.766;37.570;2023-07-20T08:23:15;98483.47;;;37.60;15.08
37792;BME280;29527;55.766;37.570;2023-07-20T08:25:40;98475.22;;;35.62;16.90
37792;BME280;29527;55.766;37.570;2023-07-20T08:28:15;98485.56;;;34.21;18.51
37792;BME280;29527;55.766;37.570;2023-07-20T08:30:49;98493.06;;;33.14;19.41
37792;BME280;29527;55.766;37.570;2023-07-20T08:33:16;98492.16;;;32.00;20.25
37792;BME280;29527;55.766;37.570;2023-07-20T08:35:43;98487.31;;;31.19;21.13
37792;BME280;29527;55.766;37.570;2023-07-20T08:38:09;98485.75;;;30.48;22.41
37792;BME280;29527;55.766;37.570;2023-07-20T08:40:39;98485.25;;;29.96;23.47
37792;BME280;29527;55.766;37.570;2023-07-20T08:43:05;98491.63;;;29.20;24.57
37792;BME280;29527;55.766;37.570;2023-07-20T08:45:33;98498.03;;;28.74;25.80
37792;BME280;29527;55.766;37.570;2023-07-20T08:48:00;98496.09;;;28.64;26.42
37792;BME280;29527;55.766;37.570;2023-07-20T08:50:30;98498.03;;;28.79;25.79
37792;BME280;29527;55.766;37.570;2023-07-20T08:52:57;98494.16;;;28.75;26.06
37792;BME280;29527;55.766;37.570;2023-07-20T08:55:25;98499.97;;;28.84;26.37
37792;BME280;29527;55.766;37.570;2023-07-20T08:57:53;98503.53;;;28.90;25.63
37792;BME280;29527;55.766;37.570;2023-07-20T09:00:20;98492.81;;;28.83;26.33
37792;BME280;29527;55.766;37.570;2023-07-20T09:02:48;98465.81;;;28.49;26.61
37792;BME280;29527;55.766;37.570;2023-07-20T09:05:14;98490.31;;;28.50;26.98
37792;BME280;29527;55.766;37.570;2023-07-20T09:07:40;98498.03;;;28.28;27.45
37792;BME280;29527;55.766;37.570;2023-07-20T09:10:07;98504.56;;;28.01;27.42
37792;BME280;29527;55.766;37.570;2023-07-20T09:12:39;98495.16;;;27.81;27.44
37792;BME280;29527;55.766;37.570;2023-07-20T09:15:06;98497.25;;;27.58;27.83
37792;BME280;29527;55.766;37.570;2023-07-20T09:17:33;98492.50;;;27.43;28.40
37792;BME280;29527;55.766;37.570;2023-07-20T09:20:02;98500.41;;;27.29;28.29
37792;BME280;29527;55.766;37.570;2023-07-20T09:22:32;98501.31;;;26.97;28.65
37792;BME280;29527;55.766;37.570;2023-07-20T09:24:58;98492.31;;;26.74;29.71
37792;BME280;29527;55.766;37.570;2023-07-20T09:27:37;98507.94;;;26.69;29.14
37792;BME280;29527;55.766;37.570;2023-07-20T09:30:06;98507.44;;;26.39;30.29
37792;BME280;29527;55.766;37.570;2023-07-20T09:32:45;98502.41;;;26.31;30.55
37792;BME280;29527;55.766;37.570;2023-07-20T09:35:18;98510.00;;;26.23;30.84
37792;BME280;29527;55.766;37.570;2023-07-20T09:40:16;98499.19;;;25.84;31.34
37792;BME280;29527;55.766;37.570;2023-07-20T09:42:45;98501.06;;;26.06;31.22
37792;BME280;29527;55.766;37.570;2023-07-20T09:45:11;98506.53;;;26.06;31.53
37792;BME280;29527;55.766;37.570;2023-07-20T09:47:38;98517.78;;;25.82;32.08
37792;BME280;29527;55.766;37.570;2023-07-20T09:50:04;98542.34;;;25.32;34.07
37792;BME280;29527;55.766;37.570;2023-07-20T09:52:33;98540.16;;;24.61;37.50
37792;BME280;29527;55.766;37.570;2023-07-20T09:55:00;98553.28;;;23.89;39.91
37792;BME280;29527;55.766;37.570;2023-07-20T09:57:26;98571.31;;;23.49;42.66
37792;BME280;29527;55.766;37.570;2023-07-20T09:59:51;98552.31;;;23.06;44.36
37792;BME280;29527;55.766;37.570;2023-07-20T10:02:23;98532.09;;;22.60;46.15
37792;BME280;29527;55.766;37.570;2023-07-20T10:04:52;98565.78;;;22.54;47.80
37792;BME280;29527;55.766;37.570;2023-07-20T10:07:19;98555.69;;;22.23;49.41
37792;BME280;29527;55.766;37.570;2023-07-20T10:09:48;98555.66;;;22.12;50.09
37792;BME280;29527;55.766;37.570;2023-07-20T10:12:14;98561.41;;;22.03;51.86
37792;BME280;29527;55.766;37.570;2023-07-20T10:14:42;98548.28;;;22.12;51.64
37792;BME280;29527;55.766;37.570;2023-07-20T10:17:11;98554.56;;;22.43;49.98
37792;BME280;29527;55.766;37.570;2023-07-20T10:19:43;98553.63;;;22.80;49.43
37792;BME280;29527;55.766;37.570;2023-07-20T10:22:25;98556.59;;;23.26;47.67
37792;BME280;29527;55.766;37.570;2023-07-20T10:24:51;98540.41;;;23.60;46.75
37792;BME280;29527;55.766;37.570;2023-07-20T10:27:20;98549.59;;;23.83;46.57
37792;BME280;29527;55.766;37.570;2023-07-20T10:29:47;98552.13;;;23.85;47.17
37792;BME280;29527;55.766;37.570;2023-07-20T10:32:13;98549.75;;;23.88;46.49
37792;BME280;29527;55.766;37.570;2023-07-20T10:34:39;98549.78;;;24.17;45.28
37792;BME280;29527;55.766;37.570;2023-07-20T10:37:04;98544.34;;;24.51;43.34
37792;BME280;29527;55.766;37.570;2023-07-20T10:39:31;98520.50;;;24.64;42.25
37792;BME280;29527;55.766;37.570;2023-07-20T10:42:01;98535.41;;;25.07;41.72
37792;BME280;29527;55.766;37.570;2023-07-20T10:44:30;98510.19;;;25.05;42.83
37792;BME280;29527;55.766;37.570;2023-07-20T10:47:00;98531.41;;;25.32;41.03
37792;BME280;29527;55.766;37.570;2023-07-20T10:49:26;98525.31;;;25.30;40.03
37792;BME280;29527;55.766;37.570;2023-07-20T10:51:59;98526.22;;;25.36;39.70
37792;BME280;29527;55.766;37.570;2023-07-20T10:56:51;98533.69;;;25.41;39.47
37792;BME280;29527;55.766;37.570;2023-07-20T10:59:37;98521.56;;;25.54;39.07
37792;BME280;29527;55.766;37.570;2023-07-20T11:02:08;98525.13;;;25.37;37.96
37792;BME280;29527;55.766;37.570;2023-07-20T11:04:44;98531.25;;;25.22;38.07
37792;BME280;29527;55.766;37.570;2023-07-20T11:07:10;98529.53;;;24.99;39.29
37792;BME280;29527;55.766;37.570;2023-07-20T11:09:40;98536.25;;;24.91;38.86
37792;BME280;29527;55.766;37.570;2023-07-20T11:12:10;98545.06;;;24.93;41.10
37792;BME280;29527;55.766;37.570;2023-07-20T11:14:56;98572.56;;;24.69;40.19
37792;BME280;29527;55.766;37.570;2023-07-20T11:17:31;98582.84;;;24.04;41.57
37792;BME280;29527;55.766;37.570;2023-07-20T11:20:02;98602.66;;;23.34;44.62
37792;BME280;29527;55.766;37.570;2023-07-20T11:22:31;98606.94;;;22.64;45.01
37792;BME280;29527;55.766;37.570;2023-07-20T11:24:57;98599.47;;;22.10;46.11
37792;BME280;29527;55.766;37.570;2023-07-20T11:27:23;98588.97;;;21.76;46.67
37792;BME280;29527;55.766;37.570;2023-07-20T11:29:49;98582.84;;;21.62;46.88
37792;BME280;29527;55.766;37.570;2023-07-20T11:32:24;98588.63;;;21.73;47.34
37792;BME280;29527;55.766;37.570;2023-07-20T11:34:50;98576.06;;;21.72;48.25
37792;BME280;29527;55.766;37.570;2023-07-20T11:37:19;98585.56;;;22.00;47.54
37792;BME280;29527;55.766;37.570;2023-07-20T11:39:45;98570.13;;;22.24;48.12
37792;BME280;29527;55.766;37.570;2023-07-20T11:42:11;98571.34;;;22.59;47.09
37792;BME280;29527;55.766;37.570;2023-07-20T11:44:37;98570.34;;;22.96;47.10
37792;BME280;29527;55.766;37.570;2023-07-20T11:47:08;98576.19;;;23.35;44.68
37792;BME280;29527;55.766;37.570;2023-07-20T11:49:35;98567.69;;;23.72;44.97
37792;BME280;29527;55.766;37.570;2023-07-20T11:52:03;98572.59;;;23.99;44.54
37792;BME280;29527;55.766;37.570;2023-07-20T11:54:29;98577.19;;;24.22;43.63
37792;BME280;29527;55.766;37.570;2023-07-20T11:56:55;98576.41;;;24.10;43.66
37792;BME280;29527;55.766;37.570;2023-07-20T11:59:23;98581.81;;;23.81;44.58
37792;BME280;29527;55.766;37.570;2023-07-20T12:01:49;98579.53;;;23.37;44.41
37792;BME280;29527;55.766;37.570;2023-07-20T12:04:14;98572.47;;;23.05;45.81
37792;BME280;29527;55.766;37.570;2023-07-20T12:06:40;98569.50;;;22.83;45.61
37792;BME280;29527;55.766;37.570;2023-07-20T12:09:13;98570.44;;;22.89;46.07
37792;BME280;29527;55.766;37.570;2023-07-20T12:11:42;98575.00;;;23.43;43.28
37792;BME280;29527;55.766;37.570;2023-07-20T12:14:09;98580.94;;;23.51;43.08
37792;BME280;29527;55.766;37.570;2023-07-20T12:16:35;98578.50;;;23.79;42.41
37792;BME280;29527;55.766;37.570;2023-07-20T12:19:09;98569.28;;;23.97;42.45
37792;BME280;29527;55.766;37.570;2023-07-20T12:21:37;98543.28;;;23.94;41.35
37792;BME280;29527;55.766;37.570;2023-07-20T12:24:04;98581.88;;;24.10;40.90
37792;BME280;29527;55.766;37.570;2023-07-20T12:26:30;98583.53;;;24.11;41.20
37792;BME280;29527;55.766;37.570;2023-07-20T12:28:56;98579.25;;;24.15;41.32
37792;BME280;29527;55.766;37.570;2023-07-20T12:31:22;98544.38;;;23.93;40.44
37792;BME280;29527;55.766;37.570;2023-07-20T12:33:50;98564.41;;;23.99;40.16
37792;BME280;29527;55.766;37.570;2023-07-20T12:36:17;98577.66;;;24.02;41.04
37792;BME280;29527;55.766;37.570;2023-07-20T12:38:43;98564.31;;;24.06;41.29
37792;BME280;29527;55.766;37.570;2023-07-20T12:41:10;98579.59;;;24.19;40.97
37792;BME280;29527;55.766;37.570;2023-07-20T12:43:41;98566.84;;;24.25;41.23
37792;BME280;29527;55.766;37.570;2023-07-20T12:46:07;98569.97;;;24.16;40.59
37792;BME280;29527;55.766;37.570;2023-07-20T12:48:33;98563.81;;;24.09;41.87
37792;BME280;29527;55.766;37.570;2023-07-20T12:50:58;98563.97;;;23.90;41.90
37792;BME280;29527;55.766;37.570;2023-07-20T12:53:24;98562.63;;;23.64;42.63
37792;BME280;29527;55.766;37.570;2023-07-20T12:55:49;98565.59;;;23.39;44.00
37792;BME280;29527;55.766;37.570;2023-07-20T12:58:15;98554.44;;;23.04;44.09
37792;BME280;29527;55.766;37.570;2023-07-20T13:00:41;98556.47;;;22.85;44.39
37792;BME280;29527;55.766;37.570;2023-07-20T13:03:07;98556.56;;;22.78;44.48